createdAt,value
2022-08-08T00:02:14.965Z,0
2022-08-08T00:04:41.591Z,0
2022-08-08T00:07:08.224Z,0
2022-08-08T00:09:34.831Z,0
2022-08-08T00:12:01.465Z,0
2022-08-08T00:14:26.588Z,0
2022-08-08T00:16:53.212Z,0
2022-08-08T00:19:19.829Z,0
2022-08-08T00:21:46.453Z,0
2022-08-08T00:24:13.080Z,0
2022-08-08T00:26:39.701Z,0
2022-08-08T00:29:06.317Z,0
2022-08-08T00:31:32.931Z,0
2022-08-08T00:33:59.559Z,0
2022-08-08T00:36:26.189Z,0
2022-08-08T00:38:52.832Z,0
2022-08-08T00:41:19.450Z,0
2022-08-08T00:43:46.060Z,0
2022-08-08T00:46:11.187Z,0
2022-08-08T00:48:37.799Z,0
2022-08-08T00:51:04.423Z,0
2022-08-08T00:53:31.045Z,0
2022-08-08T00:55:57.673Z,0
2022-08-08T00:58:24.304Z,0
2022-08-08T01:00:50.917Z,0
2022-08-08T01:03:17.540Z,0
2022-08-08T01:05:44.165Z,0
2022-08-08T01:08:10.824Z,0
2022-08-08T01:10:37.417Z,0
2022-08-08T01:13:04.040Z,0
2022-08-08T01:15:30.653Z,0
2022-08-08T01:17:55.792Z,0
2022-08-08T01:20:22.402Z,0
2022-08-08T01:22:49.024Z,0
2022-08-08T01:25:15.650Z,0
2022-08-08T01:27:42.281Z,0
2022-08-08T01:30:08.901Z,0
2022-08-08T01:32:35.536Z,0
2022-08-08T01:35:02.154Z,0
2022-08-08T01:37:28.772Z,0
2022-08-08T01:39:55.379Z,0
2022-08-08T01:42:22.001Z,0
2022-08-08T01:44:48.629Z,0
2022-08-08T01:47:15.259Z,0
2022-08-08T01:49:40.403Z,0
2022-08-08T01:52:06.996Z,0
2022-08-08T01:54:33.625Z,0
2022-08-08T01:57:00.253Z,0
2022-08-08T01:59:26.872Z,0
2022-08-08T02:01:53.495Z,0
2022-08-08T02:04:20.119Z,0
2022-08-08T02:06:46.741Z,0
2022-08-08T02:09:13.349Z,0
2022-08-08T02:11:39.982Z,0
2022-08-08T02:14:06.600Z,0
2022-08-08T02:16:33.235Z,0
2022-08-08T02:18:59.848Z,0
2022-08-08T02:21:24.981Z,0
2022-08-08T02:23:51.587Z,0
2022-08-08T02:26:18.228Z,0
2022-08-08T02:28:44.829Z,0
2022-08-08T02:31:11.470Z,0
2022-08-08T02:33:38.077Z,0
2022-08-08T02:36:04.722Z,0
2022-08-08T02:38:31.334Z,0
2022-08-08T02:40:57.941Z,0
2022-08-08T02:43:24.571Z,0
2022-08-08T02:45:51.206Z,0
2022-08-08T02:48:17.810Z,0
2022-08-08T02:50:44.447Z,0
2022-08-08T02:53:09.560Z,0
2022-08-08T02:55:36.190Z,0
2022-08-08T02:58:02.820Z,0
2022-08-08T03:00:29.440Z,0
2022-08-08T03:02:54.577Z,0
2022-08-08T03:05:21.184Z,0
2022-08-08T03:07:47.824Z,0
2022-08-08T03:10:14.431Z,0
2022-08-08T03:12:41.053Z,0
2022-08-08T03:15:07.690Z,0
2022-08-08T03:17:34.313Z,0
2022-08-08T03:20:00.936Z,0
2022-08-08T03:22:27.550Z,0
2022-08-08T03:24:54.177Z,0
2022-08-08T03:27:20.802Z,0
2022-08-08T03:29:47.432Z,0
2022-08-08T03:32:14.052Z,0
2022-08-08T03:34:39.176Z,4
2022-08-08T03:37:05.789Z,0
2022-08-08T03:39:32.420Z,4
2022-08-08T03:41:59.042Z,4
2022-08-08T03:44:25.667Z,4
2022-08-08T03:46:52.285Z,8
2022-08-08T03:49:18.905Z,16
2022-08-08T03:51:45.527Z,16
2022-08-08T03:54:12.166Z,28
2022-08-08T03:56:38.785Z,36
2022-08-08T03:59:05.396Z,48
2022-08-08T04:01:32.027Z,60
2022-08-08T04:03:58.651Z,84
2022-08-08T04:06:23.768Z,100
2022-08-08T04:08:50.389Z,120
2022-08-08T04:11:17.013Z,148
2022-08-08T04:13:43.640Z,176
2022-08-08T04:16:10.264Z,204
2022-08-08T04:18:36.878Z,236
2022-08-08T04:21:03.530Z,273
2022-08-08T04:23:30.138Z,309
2022-08-08T04:25:56.751Z,345
2022-08-08T04:30:50.012Z,413
2022-08-08T04:33:16.649Z,453
2022-08-08T04:35:43.240Z,493
2022-08-08T04:38:08.372Z,526
2022-08-08T04:40:35.002Z,570
2022-08-08T04:43:01.640Z,606
2022-08-08T04:45:28.252Z,642
2022-08-08T04:47:54.868Z,682
2022-08-08T04:50:21.483Z,722
2022-08-08T04:52:48.109Z,754
2022-08-08T04:55:14.725Z,787
2022-08-08T04:57:41.348Z,827
2022-08-08T05:00:07.969Z,867
2022-08-08T05:02:34.603Z,899
2022-08-08T05:05:01.223Z,939
2022-08-08T05:07:27.842Z,979
2022-08-08T05:09:52.969Z,1011
2022-08-08T05:12:19.584Z,1044
2022-08-08T05:14:46.212Z,1076
2022-08-08T05:17:12.840Z,1108
2022-08-08T05:20:04.020Z,1140
2022-08-08T05:22:06.086Z,1168
2022-08-08T05:24:32.702Z,1200
2022-08-08T05:26:59.331Z,1240
2022-08-08T05:29:25.963Z,1268
2022-08-08T05:31:52.571Z,1301
2022-08-08T05:34:19.220Z,1329
2022-08-08T05:36:45.825Z,1361
2022-08-08T05:39:12.445Z,1393
2022-08-08T05:41:37.574Z,1429
2022-08-08T05:44:04.188Z,1469
2022-08-08T05:46:30.813Z,1501
2022-08-08T05:48:57.425Z,1538
2022-08-08T05:51:24.053Z,1570
2022-08-08T05:53:50.690Z,1598
2022-08-08T05:56:17.321Z,1638
2022-08-08T05:58:43.920Z,1662
2022-08-08T06:01:10.557Z,1690
2022-08-08T06:03:37.220Z,1726
2022-08-08T06:06:03.812Z,1762
2022-08-08T06:08:30.420Z,1799
2022-08-08T06:10:57.059Z,1827
2022-08-08T06:13:22.164Z,1863
2022-08-08T06:15:48.814Z,1879
2022-08-08T06:18:15.425Z,1911
2022-08-08T06:20:42.051Z,1947
2022-08-08T06:23:08.666Z,1991
2022-08-08T06:25:35.286Z,2043
2022-08-08T06:28:01.909Z,2068
2022-08-08T06:30:28.530Z,2116
2022-08-08T06:32:55.152Z,2192
2022-08-08T06:35:21.775Z,2224
2022-08-08T06:37:48.392Z,2244
2022-08-08T06:40:15.016Z,2292
2022-08-08T06:42:41.639Z,2313
2022-08-08T06:45:06.766Z,2349
2022-08-08T06:47:33.389Z,2397
2022-08-08T06:50:00.006Z,2433
2022-08-08T06:52:26.626Z,2493
2022-08-08T06:54:53.251Z,2537
2022-08-08T06:57:19.885Z,2606
2022-08-08T06:59:49.119Z,2666
2022-08-08T07:02:13.116Z,2794
2022-08-08T07:04:39.740Z,3541
2022-08-08T07:07:06.371Z,4104
2022-08-08T07:09:32.989Z,19371
2022-08-08T07:11:59.609Z,37169
2022-08-08T07:14:26.280Z,37683
2022-08-08T07:16:51.372Z,37715
2022-08-08T07:19:18.004Z,39385
2022-08-08T07:21:44.616Z,44943
2022-08-08T07:24:11.235Z,42855
2022-08-08T07:26:37.863Z,44429
2022-08-08T07:29:04.485Z,46517
2022-08-08T07:31:31.094Z,46967
2022-08-08T07:33:57.730Z,45971
2022-08-08T07:36:24.339Z,44172
2022-08-08T07:38:50.983Z,47931
2022-08-08T07:41:17.585Z,47866
2022-08-08T07:43:44.211Z,45586
2022-08-08T07:46:10.834Z,47031
2022-08-08T07:48:35.960Z,47931
2022-08-08T07:51:02.577Z,53167
2022-08-08T07:53:29.221Z,51432
2022-08-08T07:55:55.826Z,52139
2022-08-08T07:58:22.447Z,50180
2022-08-08T08:00:49.090Z,49698
2022-08-08T08:03:15.701Z,47481
2022-08-08T08:05:42.330Z,53713
2022-08-08T08:08:08.951Z,57311
2022-08-08T08:10:35.615Z,58918
2022-08-08T08:13:02.196Z,55127
2022-08-08T08:15:28.812Z,52621
2022-08-08T08:17:55.445Z,56829
2022-08-08T08:20:20.561Z,58082
2022-08-08T08:22:47.178Z,57986
2022-08-08T08:25:13.813Z,63062
2022-08-08T08:27:40.441Z,60717
2022-08-08T08:30:07.061Z,61937
2022-08-08T08:32:33.677Z,65985
2022-08-08T08:35:00.286Z,66885
2022-08-08T08:37:26.928Z,64186
2022-08-08T08:39:53.559Z,63801
2022-08-08T08:42:20.177Z,62227
2022-08-08T08:44:46.784Z,53713
2022-08-08T08:47:13.415Z,62998
2022-08-08T08:49:40.049Z,60299
2022-08-08T08:52:05.157Z,69005
2022-08-08T08:54:31.787Z,68427
2022-08-08T08:56:58.425Z,70579
2022-08-08T08:59:25.024Z,66885
2022-08-08T09:01:51.656Z,65086
2022-08-08T09:04:18.274Z,66885
2022-08-08T09:06:44.905Z,66917
2022-08-08T09:09:11.530Z,64572
2022-08-08T09:11:38.137Z,63479
2022-08-08T09:14:04.777Z,64507
2022-08-08T09:16:31.392Z,70386
2022-08-08T09:18:58.019Z,66981
2022-08-08T09:21:24.641Z,69134
2022-08-08T09:23:49.777Z,67624
2022-08-08T09:26:16.388Z,67881
2022-08-08T09:28:43.023Z,75751
2022-08-08T09:31:09.630Z,58115
2022-08-08T09:33:36.259Z,77197
2022-08-08T09:36:02.880Z,7661
2022-08-08T09:38:29.503Z,75655
2022-08-08T09:40:56.132Z,69712
2022-08-08T09:43:22.761Z,83590
2022-08-08T09:45:49.368Z,80538
2022-08-08T09:48:16.022Z,92585
2022-08-08T09:50:42.631Z,84747
2022-08-08T09:53:09.247Z,84939
2022-08-08T09:55:35.867Z,94288
2022-08-08T09:58:00.995Z,75848
2022-08-08T10:00:27.641Z,78225
2022-08-08T10:02:54.235Z,71639
2022-08-08T10:05:20.874Z,85807
2022-08-08T10:07:47.501Z,37522
2022-08-08T10:10:14.120Z,6890
2022-08-08T10:12:40.746Z,5850
2022-08-08T10:15:07.354Z,5585
2022-08-08T10:17:33.987Z,5377
2022-08-08T10:20:00.612Z,5368
2022-08-08T10:22:27.230Z,5264
2022-08-08T10:24:53.856Z,5220
2022-08-08T10:27:20.485Z,4903
2022-08-08T10:29:45.627Z,4083
2022-08-08T10:32:12.236Z,4674
2022-08-08T10:34:38.869Z,4280
2022-08-08T10:37:05.476Z,5180
2022-08-08T10:39:32.085Z,3573
2022-08-08T10:41:58.711Z,3421
2022-08-08T10:44:25.346Z,3212
2022-08-08T10:46:51.976Z,3100
2022-08-08T10:49:18.598Z,3260
2022-08-08T10:51:45.211Z,3642
2022-08-08T10:54:11.839Z,3035
2022-08-08T10:56:38.450Z,2903
2022-08-08T10:59:05.087Z,2927
2022-08-08T11:01:30.469Z,2823
2022-08-08T11:06:23.601Z,2746
2022-08-08T11:08:50.088Z,2590
2022-08-08T11:11:16.693Z,2521
2022-08-08T11:13:41.842Z,2497
2022-08-08T11:16:08.465Z,2602
2022-08-08T11:18:35.091Z,2606
2022-08-08T11:21:01.919Z,2594
2022-08-08T11:23:28.322Z,2678
2022-08-08T11:25:54.951Z,2742
2022-08-08T11:28:21.583Z,2642
2022-08-08T11:30:48.204Z,2521
2022-08-08T11:33:14.824Z,2566
2022-08-08T11:35:41.442Z,2457
2022-08-08T11:38:08.068Z,2397
2022-08-08T11:40:34.688Z,2449
2022-08-08T11:43:01.341Z,2353
2022-08-08T11:45:26.434Z,2329
2022-08-08T11:47:53.058Z,2204
2022-08-08T11:50:19.715Z,2200
2022-08-08T11:52:46.325Z,2232
2022-08-08T11:55:12.958Z,2200
2022-08-08T11:57:39.573Z,2148
2022-08-08T12:00:06.190Z,2148
2022-08-08T12:02:32.817Z,2112
2022-08-08T12:04:59.455Z,2092
2022-08-08T12:07:26.067Z,2068
2022-08-08T12:09:52.682Z,2064
2022-08-08T12:12:22.433Z,2084
2022-08-08T12:14:45.934Z,2056
2022-08-08T12:17:11.048Z,2007
2022-08-08T12:19:37.672Z,1975
2022-08-08T12:22:04.298Z,1931
2022-08-08T12:24:30.925Z,1955
2022-08-08T12:26:57.542Z,1911
2022-08-08T12:29:24.167Z,1899
2022-08-08T12:31:50.803Z,1875
2022-08-08T12:34:17.450Z,1859
2022-08-08T12:36:44.036Z,1855
2022-08-08T12:39:10.687Z,1799
2022-08-08T12:41:37.292Z,1786
2022-08-08T12:44:03.918Z,1782
2022-08-08T12:46:30.548Z,1750
2022-08-08T12:48:55.672Z,1714
2022-08-08T12:51:22.290Z,1694
2022-08-08T12:53:48.923Z,1698
2022-08-08T12:56:15.539Z,1686
2022-08-08T12:58:42.165Z,1658
2022-08-08T13:01:08.789Z,1626
2022-08-08T13:03:35.442Z,1610
2022-08-08T13:06:02.033Z,1590
2022-08-08T13:10:55.292Z,1598
2022-08-08T13:13:21.917Z,1606
2022-08-08T13:15:48.533Z,1578
2022-08-08T13:18:15.160Z,1546
2022-08-08T13:20:40.292Z,1533
2022-08-08T13:23:10.219Z,1521
2022-08-08T13:25:33.540Z,1509
2022-08-08T13:28:00.178Z,1477
2022-08-08T13:30:26.795Z,1469
2022-08-08T13:32:53.418Z,1461
2022-08-08T13:35:20.038Z,1437
2022-08-08T13:37:46.654Z,1405
2022-08-08T13:40:13.285Z,1369
2022-08-08T13:42:39.933Z,1417
2022-08-08T13:45:06.526Z,1389
2022-08-08T13:47:33.180Z,1365
2022-08-08T13:49:59.797Z,1369
2022-08-08T13:52:24.924Z,1349
2022-08-08T13:54:51.545Z,1345
2022-08-08T13:59:44.787Z,1309
2022-08-08T14:02:11.410Z,1289
2022-08-08T14:04:38.041Z,1268
2022-08-08T14:07:04.658Z,1268
2022-08-08T14:09:31.291Z,1252
2022-08-08T14:11:57.903Z,1244
2022-08-08T14:14:24.534Z,1228
2022-08-08T14:16:51.152Z,1220
2022-08-08T14:19:17.770Z,1204
2022-08-08T14:21:44.398Z,1196
2022-08-08T14:24:09.534Z,1176
2022-08-08T14:26:36.151Z,1160
2022-08-08T14:29:02.770Z,1152
2022-08-08T14:31:29.401Z,1140
2022-08-08T14:33:56.014Z,1136
2022-08-08T14:36:22.653Z,1124
2022-08-08T14:38:49.282Z,1116
2022-08-08T14:41:15.897Z,1108
2022-08-08T14:43:42.513Z,1112
2022-08-08T14:46:09.404Z,1104
2022-08-08T14:48:35.766Z,1080
2022-08-08T14:51:02.411Z,1084
2022-08-08T14:53:29.007Z,1072
2022-08-08T14:55:54.147Z,1064
2022-08-08T14:58:20.772Z,1052
2022-08-08T15:00:47.392Z,1040
2022-08-08T15:03:14.009Z,1040
2022-08-08T15:05:40.626Z,1032
2022-08-08T15:08:07.260Z,1019
2022-08-08T15:10:33.878Z,1011
2022-08-08T15:13:00.506Z,999
2022-08-08T15:15:27.130Z,991
2022-08-08T15:17:53.757Z,987
2022-08-08T15:20:20.379Z,991
2022-08-08T15:22:47.000Z,975
2022-08-08T15:25:13.631Z,983
2022-08-08T15:27:38.750Z,963
2022-08-08T15:30:05.372Z,971
2022-08-08T15:32:31.998Z,959
2022-08-08T15:34:58.630Z,959
2022-08-08T15:37:25.243Z,951
2022-08-08T15:39:51.868Z,947
2022-08-08T15:42:18.488Z,943
2022-08-08T15:44:45.122Z,939
2022-08-08T15:47:11.753Z,935
2022-08-08T15:49:38.367Z,927
2022-08-08T15:52:04.991Z,927
2022-08-08T15:54:31.622Z,923
2022-08-08T15:56:58.238Z,927
2022-08-08T15:59:23.364Z,915
2022-08-08T16:01:49.981Z,911
2022-08-08T16:04:16.621Z,907
2022-08-08T16:06:43.253Z,899
2022-08-08T16:09:09.857Z,895
2022-08-08T16:12:59.933Z,895
2022-08-08T16:14:03.107Z,883
2022-08-08T16:16:29.735Z,883
2022-08-08T16:18:56.353Z,883
2022-08-08T16:21:22.990Z,871
2022-08-08T16:23:49.598Z,875
2022-08-08T16:26:16.236Z,863
2022-08-08T16:28:42.851Z,871
2022-08-08T16:31:07.986Z,867
2022-08-08T16:33:34.615Z,855
2022-08-08T16:36:01.239Z,851
2022-08-08T16:38:27.847Z,847
2022-08-08T16:40:54.471Z,843
2022-08-08T16:43:21.103Z,843
2022-08-08T16:45:47.727Z,835
2022-08-08T16:48:14.355Z,827
2022-08-08T16:50:40.969Z,823
2022-08-08T16:53:07.591Z,823
2022-08-08T16:55:34.232Z,807
2022-08-08T16:58:00.842Z,807
2022-08-08T17:00:27.463Z,795
2022-08-08T17:02:52.614Z,787
2022-08-08T17:05:19.218Z,791
2022-08-08T17:07:45.861Z,783
2022-08-08T17:10:12.453Z,775
2022-08-08T17:12:39.088Z,766
2022-08-08T17:15:05.719Z,758
2022-08-08T17:17:32.362Z,754
2022-08-08T17:19:58.962Z,742
2022-08-08T17:22:25.575Z,734
2022-08-08T17:24:52.216Z,730
2022-08-08T17:27:18.867Z,722
2022-08-08T17:29:45.464Z,706
2022-08-08T17:32:12.094Z,694
2022-08-08T17:34:37.214Z,690
2022-08-08T17:37:03.866Z,678
2022-08-08T17:39:30.456Z,666
2022-08-08T17:41:57.078Z,654
2022-08-08T17:44:23.710Z,646
2022-08-08T17:46:50.316Z,630
2022-08-08T17:49:16.946Z,614
2022-08-08T17:51:43.563Z,602
2022-08-08T17:54:10.191Z,590
2022-08-08T17:56:36.839Z,570
2022-08-08T17:59:03.464Z,554
2022-08-08T18:01:30.060Z,534
2022-08-08T18:03:56.693Z,518
2022-08-08T18:06:21.809Z,497
2022-08-08T18:08:48.443Z,473
2022-08-08T18:11:15.090Z,457
2022-08-08T18:13:41.689Z,433
2022-08-08T18:16:08.304Z,405
2022-08-08T18:18:34.941Z,385
2022-08-08T18:21:01.553Z,357
2022-08-08T18:23:28.199Z,333
2022-08-08T18:25:54.836Z,305
2022-08-08T18:28:21.430Z,277
2022-08-08T18:30:48.057Z,252
2022-08-08T18:33:14.668Z,224
2022-08-08T18:35:41.289Z,196
2022-08-08T18:38:06.435Z,172
2022-08-08T18:40:33.050Z,148
2022-08-08T18:42:59.655Z,124
2022-08-08T18:45:26.301Z,100
2022-08-08T18:47:52.916Z,84
2022-08-08T18:50:19.527Z,64
2022-08-08T18:52:46.171Z,52
2022-08-08T18:55:12.788Z,40
2022-08-08T18:57:39.406Z,28
2022-08-08T19:00:06.016Z,20
2022-08-08T19:02:32.648Z,12
2022-08-08T19:04:59.264Z,12
2022-08-08T19:07:25.911Z,8
2022-08-08T19:09:51.030Z,4
2022-08-08T19:12:17.663Z,4
2022-08-08T19:14:44.280Z,4
2022-08-08T19:17:10.887Z,4
2022-08-08T19:19:37.523Z,0
2022-08-08T19:22:04.144Z,0
2022-08-08T19:24:29.258Z,0
2022-08-08T19:26:55.909Z,0
2022-08-08T19:29:22.516Z,0
2022-08-08T19:31:49.151Z,0
2022-08-08T19:34:15.779Z,0
2022-08-08T19:36:42.383Z,0
2022-08-08T19:39:09.017Z,0
2022-08-08T19:41:35.640Z,0
2022-08-08T19:44:02.258Z,0
2022-08-08T19:46:28.894Z,0
2022-08-08T19:48:55.512Z,0
2022-08-08T19:51:22.130Z,0
2022-08-08T19:53:48.751Z,0
2022-08-08T19:56:13.897Z,0
2022-08-08T19:58:40.511Z,0
2022-08-08T20:01:07.132Z,0
2022-08-08T20:03:33.747Z,0
2022-08-08T20:06:00.371Z,0
2022-08-08T20:08:26.998Z,0
2022-08-08T20:10:53.624Z,0
2022-08-08T20:13:20.250Z,0
2022-08-08T20:15:46.854Z,0
2022-08-08T20:18:13.502Z,0
2022-08-08T20:20:40.114Z,0
2022-08-08T20:23:06.728Z,0
2022-08-08T20:25:33.366Z,0
2022-08-08T20:27:58.501Z,0
2022-08-08T20:30:25.116Z,0
2022-08-08T20:32:51.726Z,0
2022-08-08T20:35:18.341Z,0
2022-08-08T20:37:44.975Z,0
2022-08-08T20:40:11.602Z,0
2022-08-08T20:42:38.226Z,0
2022-08-08T20:45:04.831Z,0
2022-08-08T20:47:31.470Z,0
2022-08-08T20:49:58.098Z,0
2022-08-08T20:52:24.701Z,0
2022-08-08T20:54:51.329Z,0
2022-08-08T20:57:17.957Z,0
2022-08-08T20:59:43.090Z,0
2022-08-08T21:02:09.701Z,0
2022-08-08T21:04:36.330Z,0
2022-08-08T21:07:02.950Z,0
2022-08-08T21:09:29.580Z,0
2022-08-08T21:11:56.196Z,0
2022-08-08T21:14:22.820Z,0
2022-08-08T21:16:49.445Z,0
2022-08-08T21:19:16.075Z,0
2022-08-08T21:21:42.695Z,0
2022-08-08T21:24:09.340Z,0
2022-08-08T21:26:35.939Z,0
2022-08-08T21:29:02.559Z,0
2022-08-08T21:31:27.681Z,0
2022-08-08T21:33:54.318Z,0
2022-08-08T21:36:20.921Z,0
2022-08-08T21:38:47.548Z,0
2022-08-08T21:41:14.180Z,0
2022-08-08T21:43:40.807Z,0
2022-08-08T21:46:07.442Z,0
2022-08-08T21:48:34.054Z,0
2022-08-08T21:51:00.674Z,0
2022-08-08T21:53:27.294Z,0
2022-08-08T21:55:53.927Z,0
2022-08-08T21:58:20.544Z,0
2022-08-08T22:00:47.161Z,0
2022-08-08T22:03:12.292Z,0
2022-08-08T22:05:38.906Z,0
2022-08-08T22:08:05.527Z,0
2022-08-08T22:10:32.148Z,0
2022-08-08T22:12:58.787Z,0
2022-08-08T22:15:25.403Z,0
2022-08-08T22:17:52.024Z,0
2022-08-08T22:20:18.653Z,0
2022-08-08T22:22:45.268Z,0
2022-08-08T22:25:11.890Z,0
2022-08-08T22:27:38.517Z,0
2022-08-08T22:30:05.139Z,0
2022-08-08T22:32:31.766Z,0
2022-08-08T22:34:56.875Z,0
2022-08-08T22:37:23.502Z,0
2022-08-08T22:39:50.128Z,0
2022-08-08T22:42:16.762Z,0
2022-08-08T22:44:43.374Z,0
2022-08-08T22:47:10.012Z,0
2022-08-08T22:49:36.630Z,0
2022-08-08T22:52:03.243Z,0
2022-08-08T22:54:29.870Z,0
2022-08-08T22:56:56.488Z,0
2022-08-08T22:59:23.133Z,0
2022-08-08T23:01:49.750Z,0
2022-08-08T23:04:16.351Z,0
2022-08-08T23:06:41.472Z,0
2022-08-08T23:09:08.108Z,0
2022-08-08T23:11:34.722Z,0
2022-08-08T23:14:01.351Z,0
2022-08-08T23:18:54.594Z,0
2022-08-08T23:21:21.214Z,0
2022-08-08T23:23:47.836Z,0
2022-08-08T23:26:14.465Z,0
2022-08-08T23:28:41.093Z,0
2022-08-08T23:31:07.714Z,0
2022-08-08T23:33:34.340Z,0
2022-08-08T23:36:00.971Z,0
2022-08-08T23:38:26.078Z,0
2022-08-08T23:40:52.700Z,0
2022-08-08T23:43:19.317Z,0
2022-08-08T23:45:45.949Z,0
2022-08-08T23:48:57.264Z,0
2022-08-08T23:50:39.193Z,0
2022-08-08T23:53:05.822Z,0
2022-08-08T23:55:32.448Z,0
2022-08-08T23:57:59.071Z,0
